createdAt,value
2023-02-05T00:02:00.552Z,6.70
2023-02-05T00:04:02.729Z,7.83
2023-02-05T00:06:05.561Z,9.33
2023-02-05T00:08:07.683Z,11.73
2023-02-05T00:10:10.354Z,11.13
2023-02-05T00:12:12.712Z,9.50
2023-02-05T00:14:17.512Z,9.60
2023-02-05T00:16:22.934Z,8.53
2023-02-05T00:18:25.181Z,5.87
2023-02-05T00:20:28.658Z,5.73
2023-02-05T00:22:30.740Z,8.47
2023-02-05T00:24:32.772Z,8.50
2023-02-05T00:26:37.362Z,8.70
2023-02-05T00:28:39.458Z,7.97
2023-02-05T00:30:42.098Z,9.23
2023-02-05T00:32:44.628Z,7.67
2023-02-05T00:34:46.625Z,9.97
2023-02-05T00:36:48.944Z,11.07
2023-02-05T00:38:51.952Z,9.67
2023-02-05T00:40:54.475Z,8.70
2023-02-05T00:42:56.423Z,7.83
2023-02-05T00:44:58.550Z,10.53
2023-02-05T00:47:00.877Z,8.93
2023-02-05T00:49:03.259Z,10.83
2023-02-05T00:51:05.610Z,9.10
2023-02-05T00:53:07.873Z,10.10
2023-02-05T00:55:10.279Z,10.33
2023-02-05T00:57:12.405Z,8.17
2023-02-05T00:59:14.974Z,8.47
2023-02-05T01:01:18.008Z,6.67
2023-02-05T01:03:20.392Z,9.27
2023-02-05T01:05:22.723Z,6.43
2023-02-05T01:07:24.931Z,6.43
2023-02-05T01:09:26.987Z,8.40
2023-02-05T01:11:29.123Z,7.20
2023-02-05T01:13:31.304Z,8.80
2023-02-05T01:15:33.948Z,10.10
2023-02-05T01:17:36.348Z,8.77
2023-02-05T01:19:38.493Z,10.63
2023-02-05T01:21:41.148Z,6.27
2023-02-05T01:23:43.219Z,9.37
2023-02-05T01:25:46.113Z,10.40
2023-02-05T01:27:49.998Z,9.07
2023-02-05T01:29:52.356Z,10.97
2023-02-05T01:31:54.958Z,11.00
2023-02-05T01:33:57.162Z,8.87
2023-02-05T01:35:59.210Z,8.50
2023-02-05T01:38:01.339Z,8.97
2023-02-05T01:40:04.029Z,8.30
2023-02-05T01:42:25.539Z,7.13
2023-02-05T01:44:30.810Z,10.10
2023-02-05T01:46:35.481Z,7.37
2023-02-05T01:48:46.479Z,8.90
2023-02-05T01:50:55.824Z,9.23
2023-02-05T01:53:02.883Z,9.93
2023-02-05T01:55:07.752Z,7.93
2023-02-05T01:57:21.006Z,11.10
2023-02-05T01:59:30.195Z,8.90
2023-02-05T02:01:33.137Z,7.57
2023-02-05T02:03:36.204Z,8.67
2023-02-05T02:05:38.427Z,8.87
2023-02-05T02:07:41.499Z,8.57
2023-02-05T02:09:46.110Z,15.97
2023-02-05T02:11:49.272Z,12.07
2023-02-05T02:13:55.155Z,8.43
2023-02-05T02:15:58.176Z,8.37
2023-02-05T02:18:21.867Z,7.57
2023-02-05T02:20:33.774Z,7.73
2023-02-05T02:22:55.280Z,6.57
2023-02-05T02:25:03.231Z,5.30
2023-02-05T02:27:28.821Z,6.10
2023-02-05T02:29:40.107Z,5.37
2023-02-05T02:31:49.230Z,4.67
2023-02-05T02:34:07.004Z,6.23
2023-02-05T02:36:25.674Z,6.70
2023-02-05T02:38:42.131Z,6.37
2023-02-05T02:41:15.457Z,6.47
2023-02-05T02:43:35.612Z,8.03
2023-02-05T02:45:47.127Z,6.27
2023-02-05T02:47:53.804Z,7.23
2023-02-05T02:50:03.394Z,9.90
2023-02-05T02:52:09.205Z,11.13
2023-02-05T02:54:17.017Z,9.00
2023-02-05T02:56:20.772Z,11.23
2023-02-05T02:58:32.944Z,10.80
2023-02-05T03:00:38.542Z,9.37
2023-02-05T03:02:43.215Z,7.90
2023-02-05T03:04:52.083Z,8.17
2023-02-05T03:07:01.027Z,8.87
2023-02-05T03:09:23.604Z,11.43
2023-02-05T03:11:26.488Z,10.97
2023-02-05T03:13:29.848Z,11.30
2023-02-05T03:15:35.902Z,10.87
2023-02-05T03:17:39.616Z,10.93
2023-02-05T03:19:41.722Z,10.70
2023-02-05T03:21:49.257Z,9.20
2023-02-05T03:23:52.189Z,8.17
2023-02-05T03:25:54.639Z,8.37
2023-02-05T03:28:04.798Z,7.33
2023-02-05T03:30:10.321Z,10.37
2023-02-05T03:32:33.283Z,11.80
2023-02-05T03:34:47.252Z,11.17
2023-02-05T03:37:25.333Z,7.40
2023-02-05T03:39:55.183Z,6.87
2023-02-05T03:42:09.732Z,8.17
2023-02-05T03:44:23.802Z,9.30
2023-02-05T03:46:37.835Z,9.27
2023-02-05T03:48:55.861Z,7.70
2023-02-05T03:51:23.620Z,8.40
2023-02-05T03:53:33.724Z,10.20
2023-02-05T03:55:46.077Z,9.90
2023-02-05T03:58:06.426Z,7.80
2023-02-05T04:00:10.203Z,11.03
2023-02-05T04:02:22.703Z,7.87
2023-02-05T04:04:25.614Z,13.20
2023-02-05T04:06:27.903Z,16.00
2023-02-05T04:08:30.716Z,14.47
2023-02-05T04:10:32.845Z,14.33
2023-02-05T04:12:37.216Z,13.30
2023-02-05T04:14:40.442Z,14.50
2023-02-05T04:16:42.715Z,10.77
2023-02-05T04:18:45.093Z,12.57
2023-02-05T04:20:47.610Z,11.33
2023-02-05T04:22:52.710Z,13.77
2023-02-05T04:24:55.404Z,11.83
2023-02-05T04:26:57.437Z,10.40
2023-02-05T04:29:00.185Z,12.60
2023-02-05T04:31:07.514Z,17.93
2023-02-05T04:33:09.903Z,16.77
2023-02-05T04:35:13.142Z,21.97
2023-02-05T04:37:17.461Z,49.03
2023-02-05T04:39:19.541Z,47.60
2023-02-05T04:41:22.266Z,29.20
2023-02-05T04:43:24.454Z,36.63
2023-02-05T04:45:31.645Z,94.03
2023-02-05T04:47:34.665Z,66.77
2023-02-05T04:49:36.992Z,40.70
2023-02-05T04:51:39.353Z,27.10
2023-02-05T04:53:41.760Z,32.87
2023-02-05T04:55:44.066Z,17.40
2023-02-05T04:57:46.540Z,16.83
2023-02-05T04:59:48.501Z,21.00
2023-02-05T05:01:50.514Z,12.77
2023-02-05T05:03:52.741Z,12.60
2023-02-05T05:05:54.872Z,21.20
2023-02-05T05:07:59.019Z,33.17
2023-02-05T05:10:01.405Z,29.73
2023-02-05T05:12:06.776Z,18.13
2023-02-05T05:14:08.923Z,9.80
2023-02-05T05:16:12.566Z,11.93
2023-02-05T05:18:17.634Z,11.93
2023-02-05T05:20:20.028Z,13.67
2023-02-05T05:22:22.479Z,12.60
2023-02-05T05:24:27.079Z,12.67
2023-02-05T05:26:31.334Z,14.33
2023-02-05T05:28:34.964Z,9.63
2023-02-05T05:30:41.608Z,12.77
2023-02-05T05:32:43.879Z,12.33
2023-02-05T05:34:46.197Z,14.57
2023-02-05T05:36:48.336Z,9.33
2023-02-05T05:38:53.482Z,12.37
2023-02-05T05:41:21.635Z,12.23
2023-02-05T05:43:42.160Z,14.03
2023-02-05T05:45:44.395Z,12.57
2023-02-05T05:47:46.873Z,15.87
2023-02-05T05:49:50.435Z,18.50
2023-02-05T05:51:52.509Z,28.23
2023-02-05T05:53:55.197Z,19.67
2023-02-05T05:55:57.466Z,18.73
2023-02-05T05:58:02.528Z,14.53
2023-02-05T06:00:05.904Z,14.43
2023-02-05T06:02:14.165Z,20.97
2023-02-05T06:04:16.605Z,15.87
2023-02-05T06:06:18.551Z,30.63
2023-02-05T06:08:20.638Z,29.13
2023-02-05T06:11:37.116Z,40.60
2023-02-05T06:13:40.234Z,31.27
2023-02-05T06:15:42.461Z,52.60
2023-02-05T06:17:47.627Z,48.00
2023-02-05T06:19:49.939Z,33.00
2023-02-05T06:21:52.273Z,21.53
2023-02-05T06:23:56.704Z,21.93
2023-02-05T06:25:58.946Z,26.00
2023-02-05T06:28:06.035Z,21.40
2023-02-05T06:30:09.077Z,18.57
2023-02-05T06:32:11.117Z,20.40
2023-02-05T06:34:16.319Z,18.00
2023-02-05T06:36:18.660Z,18.57
2023-02-05T06:38:23.836Z,14.80
2023-02-05T06:40:28.213Z,14.33
2023-02-05T06:42:30.492Z,14.97
2023-02-05T06:44:33.584Z,12.13
2023-02-05T06:46:35.638Z,12.20
2023-02-05T06:48:37.865Z,13.13
2023-02-05T06:50:39.934Z,15.30
2023-02-05T06:52:42.013Z,22.53
2023-02-05T06:54:44.935Z,20.30
2023-02-05T06:56:48.116Z,20.33
2023-02-05T06:58:50.676Z,20.17
2023-02-05T07:00:52.817Z,16.93
2023-02-05T07:02:55.453Z,15.50
2023-02-05T07:04:57.824Z,14.50
2023-02-05T07:06:59.936Z,24.20
2023-02-05T07:09:05.230Z,20.77
2023-02-05T07:11:07.625Z,33.23
2023-02-05T07:13:09.736Z,23.27
2023-02-05T07:15:12.235Z,24.43
2023-02-05T07:17:14.103Z,27.80
2023-02-05T07:19:16.396Z,28.23
2023-02-05T07:21:18.451Z,19.87
2023-02-05T07:23:20.937Z,20.23
2023-02-05T07:25:23.346Z,21.60
2023-02-05T07:27:25.659Z,23.93
2023-02-05T07:29:28.573Z,21.27
2023-02-05T07:31:31.140Z,23.10
2023-02-05T07:33:34.200Z,26.67
2023-02-05T07:35:39.497Z,24.53
2023-02-05T07:37:44.364Z,21.17
2023-02-05T07:39:47.002Z,25.70
2023-02-05T07:41:49.256Z,34.67
2023-02-05T07:44:01.012Z,30.57
2023-02-05T07:46:07.513Z,21.83
2023-02-05T07:48:12.708Z,21.67
2023-02-05T07:50:15.093Z,20.70
2023-02-05T07:52:17.538Z,28.30
2023-02-05T07:54:19.706Z,29.27
2023-02-05T07:56:22.234Z,20.93
2023-02-05T07:58:24.504Z,16.70
2023-02-05T08:00:26.769Z,15.13
2023-02-05T08:02:28.771Z,16.83
2023-02-05T08:04:31.008Z,14.57
2023-02-05T08:06:34.253Z,9.97
2023-02-05T08:08:36.395Z,13.07
2023-02-05T08:10:38.495Z,14.67
2023-02-05T08:12:40.736Z,15.80
2023-02-05T08:14:45.512Z,13.37
2023-02-05T08:16:47.958Z,10.70
2023-02-05T08:18:51.305Z,9.30
2023-02-05T08:20:56.524Z,11.10
2023-02-05T08:22:58.686Z,11.57
2023-02-05T08:25:00.644Z,11.77
2023-02-05T08:27:04.504Z,12.00
2023-02-05T08:29:08.355Z,10.00
2023-02-05T08:31:12.963Z,14.30
2023-02-05T08:33:15.175Z,13.30
2023-02-05T08:35:18.418Z,10.20
2023-02-05T08:37:20.482Z,11.13
2023-02-05T08:39:22.734Z,15.03
2023-02-05T08:41:24.863Z,13.30
2023-02-05T08:43:26.776Z,15.03
2023-02-05T08:45:30.672Z,15.60
2023-02-05T08:47:32.885Z,15.00
2023-02-05T08:49:35.203Z,11.20
2023-02-05T08:51:38.171Z,25.43
2023-02-05T08:53:41.155Z,28.13
2023-02-05T08:55:43.252Z,36.37
2023-02-05T08:57:45.562Z,46.13
2023-02-05T08:59:48.723Z,29.57
2023-02-05T09:01:50.851Z,30.17
2023-02-05T09:03:52.926Z,34.47
2023-02-05T09:05:55.096Z,23.57
2023-02-05T09:07:59.226Z,25.57
2023-02-05T09:10:06.508Z,23.10
2023-02-05T09:12:10.982Z,29.17
2023-02-05T09:14:14.045Z,21.60
2023-02-05T09:16:15.824Z,20.23
2023-02-05T09:18:18.409Z,22.20
2023-02-05T09:20:20.482Z,19.93
2023-02-05T09:22:22.650Z,18.33
2023-02-05T09:24:25.254Z,12.00
2023-02-05T09:26:27.365Z,13.40
2023-02-05T09:28:29.455Z,16.37
2023-02-05T09:30:31.971Z,16.60
2023-02-05T09:32:34.321Z,18.97
2023-02-05T09:34:36.404Z,12.63
2023-02-05T09:36:40.526Z,11.43
2023-02-05T09:38:42.953Z,8.73
2023-02-05T09:40:51.669Z,10.43
2023-02-05T09:43:02.913Z,12.33
2023-02-05T09:45:16.910Z,10.17
2023-02-05T09:47:42.583Z,10.47
2023-02-05T09:50:11.554Z,9.20
2023-02-05T09:52:40.464Z,10.50
2023-02-05T09:54:46.851Z,12.57
2023-02-05T09:56:50.741Z,12.00
2023-02-05T09:58:56.174Z,9.27
2023-02-05T10:01:04.096Z,10.20
2023-02-05T10:03:50.158Z,11.50
2023-02-05T10:06:11.013Z,11.10
2023-02-05T10:08:26.930Z,11.37
2023-02-05T10:10:45.924Z,15.00
2023-02-05T10:13:19.683Z,13.53
2023-02-05T10:15:50.044Z,17.10
2023-02-05T10:18:04.885Z,13.57
2023-02-05T10:20:07.453Z,8.93
2023-02-05T10:22:22.248Z,9.20
2023-02-05T10:24:58.933Z,9.60
2023-02-05T10:27:09.968Z,24.87
2023-02-05T10:29:21.340Z,16.77
2023-02-05T10:32:03.474Z,10.87
2023-02-05T10:34:43.757Z,16.97
2023-02-05T10:36:51.128Z,14.97
2023-02-05T10:38:57.998Z,26.73
2023-02-05T10:41:07.834Z,18.43
2023-02-05T10:43:26.034Z,12.00
2023-02-05T10:45:30.050Z,19.53
2023-02-05T10:47:35.013Z,12.93
2023-02-05T10:49:52.190Z,11.93
2023-02-05T10:51:55.151Z,13.57
2023-02-05T10:54:00.688Z,12.07
2023-02-05T10:56:04.945Z,10.37
2023-02-05T10:58:37.550Z,9.47
2023-02-05T11:00:40.638Z,25.03
2023-02-05T11:02:46.343Z,62.40
2023-02-05T11:05:01.686Z,34.57
2023-02-05T11:07:06.528Z,33.90
2023-02-05T11:09:26.883Z,36.37
2023-02-05T11:11:32.226Z,47.73
2023-02-05T11:13:41.980Z,45.93
2023-02-05T11:16:04.060Z,121.33
2023-02-05T11:18:22.178Z,124.83
2023-02-05T11:20:35.615Z,97.57
2023-02-05T11:22:41.705Z,76.23
2023-02-05T11:24:44.085Z,121.83
2023-02-05T11:26:49.576Z,72.07
2023-02-05T11:28:52.663Z,49.77
2023-02-05T11:30:55.761Z,58.47
2023-02-05T11:40:55.005Z,37.83
2023-02-05T11:43:02.381Z,26.80
2023-02-05T11:45:04.712Z,38.40
2023-02-05T11:47:08.454Z,26.90
2023-02-05T11:49:22.176Z,23.63
2023-02-05T11:51:36.053Z,24.37
2023-02-05T11:53:45.673Z,32.17
2023-02-05T11:55:55.306Z,29.63
2023-02-05T11:58:03.676Z,34.20
2023-02-05T12:00:09.279Z,35.47
2023-02-05T12:02:29.099Z,28.17
2023-02-05T12:04:44.523Z,25.13
2023-02-05T12:07:15.620Z,23.53
2023-02-05T12:09:23.650Z,29.97
2023-02-05T12:12:04.315Z,25.03
2023-02-05T12:14:19.249Z,16.93
2023-02-05T12:16:33.112Z,15.63
2023-02-05T12:18:56.340Z,10.17
2023-02-05T12:21:14.484Z,11.03
2023-02-05T12:23:27.814Z,11.17
2023-02-05T12:25:47.700Z,9.43
2023-02-05T12:28:33.813Z,6.37
2023-02-05T12:31:00.288Z,8.07
2023-02-05T12:33:49.109Z,12.03
2023-02-05T12:36:13.179Z,13.77
2023-02-05T12:38:31.988Z,12.50
2023-02-05T12:40:42.713Z,11.63
2023-02-05T12:43:23.748Z,9.40
2023-02-05T12:45:49.141Z,12.37
2023-02-05T12:48:06.269Z,8.07
2023-02-05T12:50:40.079Z,10.90
2023-02-05T12:52:53.029Z,26.67
2023-02-05T12:55:01.036Z,15.13
2023-02-05T12:57:12.078Z,15.00
2023-02-05T12:59:33.948Z,28.17
2023-02-05T13:01:42.550Z,24.73
2023-02-05T13:03:55.346Z,18.00
2023-02-05T13:06:06.829Z,14.93
2023-02-05T13:08:19.658Z,21.23
2023-02-05T13:10:25.539Z,24.27
2023-02-05T13:12:34.491Z,28.77
2023-02-05T13:15:13.746Z,22.23
2023-02-05T13:17:26.670Z,24.73
2023-02-05T13:19:34.183Z,15.50
2023-02-05T13:21:55.571Z,22.23
2023-02-05T13:24:31.730Z,14.47
2023-02-05T13:27:04.022Z,9.43
2023-02-05T13:29:12.690Z,8.73
2023-02-05T13:31:17.884Z,11.87
2023-02-05T13:33:20.601Z,18.77
2023-02-05T13:35:24.086Z,11.50
2023-02-05T13:37:47.922Z,11.00
2023-02-05T13:40:00.534Z,10.10
2023-02-05T13:42:40.036Z,15.13
2023-02-05T13:45:03.572Z,13.27
2023-02-05T13:47:40.704Z,16.60
2023-02-05T13:50:24.956Z,12.80
2023-02-05T13:52:41.840Z,10.80
2023-02-05T13:55:20.620Z,13.30
2023-02-05T13:57:57.119Z,10.13
2023-02-05T14:00:01.111Z,15.90
2023-02-05T14:02:04.264Z,14.87
2023-02-05T14:04:22.475Z,13.17
2023-02-05T14:06:28.785Z,10.37
2023-02-05T14:08:38.140Z,14.40
2023-02-05T14:10:45.253Z,20.00
2023-02-05T14:12:47.344Z,13.20
2023-02-05T14:15:17.403Z,14.90
2023-02-05T14:17:28.290Z,14.83
2023-02-05T14:19:33.024Z,13.27
2023-02-05T14:21:34.934Z,17.33
2023-02-05T14:23:49.242Z,28.77
2023-02-05T14:26:03.802Z,12.63
2023-02-05T14:28:08.799Z,28.20
2023-02-05T14:30:29.791Z,25.10
2023-02-05T14:32:31.829Z,10.10
2023-02-05T14:34:33.786Z,6.90
2023-02-05T14:36:38.594Z,10.60
2023-02-05T14:38:45.436Z,9.57
2023-02-05T14:41:06.938Z,10.10
2023-02-05T14:43:21.835Z,14.67
2023-02-05T14:45:27.920Z,17.53
2023-02-05T14:47:35.949Z,21.17
2023-02-05T14:49:43.568Z,19.40
2023-02-05T14:51:59.369Z,28.57
2023-02-05T14:54:23.509Z,18.17
2023-02-05T14:56:34.394Z,19.73
2023-02-05T14:58:41.100Z,20.40
2023-02-05T15:00:44.415Z,21.70
2023-02-05T15:03:08.017Z,21.17
2023-02-05T15:05:19.447Z,29.20
2023-02-05T15:07:27.102Z,19.33
2023-02-05T15:09:44.310Z,17.13
2023-02-05T15:12:22.478Z,18.03
2023-02-05T15:14:35.604Z,28.27
2023-02-05T15:16:38.431Z,24.87
2023-02-05T15:19:01.256Z,18.20
2023-02-05T15:21:05.298Z,14.30
2023-02-05T15:23:21.779Z,11.83
2023-02-05T15:25:53.167Z,29.70
2023-02-05T15:28:31.026Z,18.97
2023-02-05T15:31:18.461Z,19.53
2023-02-05T15:33:33.367Z,22.57
2023-02-05T15:35:37.807Z,17.67
2023-02-05T15:37:49.253Z,11.97
2023-02-05T15:39:57.156Z,9.83
2023-02-05T15:42:01.562Z,14.77
2023-02-05T15:44:04.549Z,16.03
2023-02-05T15:46:08.396Z,15.67
2023-02-05T15:48:10.846Z,10.17
2023-02-05T15:50:15.141Z,13.07
2023-02-05T15:52:24.919Z,12.60
2023-02-05T15:54:27.569Z,13.63
2023-02-05T15:56:42.414Z,8.97
2023-02-05T15:59:02.746Z,10.13
2023-02-05T16:01:05.059Z,11.00
2023-02-05T16:03:23.573Z,10.70
2023-02-05T16:05:27.309Z,9.07
2023-02-05T16:07:36.224Z,11.17
2023-02-05T16:09:45.762Z,9.77
2023-02-05T16:11:48.871Z,11.80
2023-02-05T16:14:03.021Z,12.47
2023-02-05T16:16:10.534Z,9.30
2023-02-05T16:18:32.197Z,9.17
2023-02-05T16:20:38.055Z,9.97
2023-02-05T16:22:49.600Z,14.13
2023-02-05T16:24:58.069Z,15.23
2023-02-05T16:27:15.455Z,13.60
2023-02-05T16:29:47.069Z,12.40
2023-02-05T16:31:58.115Z,12.00
2023-02-05T16:34:00.276Z,12.30
2023-02-05T16:36:09.702Z,15.40
2023-02-05T16:38:17.223Z,19.37
2023-02-05T16:40:43.220Z,19.90
2023-02-05T16:42:46.429Z,22.80
2023-02-05T16:44:49.701Z,22.10
2023-02-05T16:47:11.752Z,24.60
2023-02-05T16:49:26.150Z,36.23
2023-02-05T16:51:35.922Z,40.23
2023-02-05T16:53:38.206Z,47.67
2023-02-05T16:55:43.019Z,34.63
2023-02-05T16:57:47.643Z,28.90
2023-02-05T17:00:00.054Z,26.10
2023-02-05T17:02:03.628Z,24.03
2023-02-05T17:04:06.589Z,28.57
2023-02-05T17:06:14.270Z,68.73
2023-02-05T17:08:16.853Z,43.40
2023-02-05T17:10:22.101Z,28.93
2023-02-05T17:12:37.598Z,26.63
2023-02-05T17:14:39.738Z,22.50
2023-02-05T17:16:43.008Z,21.43
2023-02-05T17:18:57.779Z,26.90
2023-02-05T17:21:22.200Z,20.97
2023-02-05T17:23:24.526Z,31.93
2023-02-05T17:25:28.424Z,24.10
2023-02-05T17:27:37.809Z,23.77
2023-02-05T17:29:40.325Z,21.63
2023-02-05T17:31:43.190Z,18.53
2023-02-05T17:33:50.858Z,19.30
2023-02-05T17:35:52.992Z,24.13
2023-02-05T17:37:55.020Z,21.47
2023-02-05T17:39:58.051Z,28.40
2023-02-05T17:42:07.770Z,30.53
2023-02-05T17:44:12.823Z,39.07
2023-02-05T17:46:15.259Z,27.30
2023-02-05T17:48:18.248Z,47.60
2023-02-05T17:50:20.481Z,46.93
2023-02-05T17:52:22.678Z,55.83
2023-02-05T17:54:26.363Z,51.50
2023-02-05T17:56:28.564Z,34.43
2023-02-05T17:58:30.868Z,21.53
2023-02-05T18:00:33.534Z,25.90
2023-02-05T18:02:35.944Z,23.73
2023-02-05T18:04:38.425Z,19.90
2023-02-05T18:06:42.845Z,19.20
2023-02-05T18:08:44.870Z,24.33
2023-02-05T18:10:46.776Z,21.40
2023-02-05T18:12:48.851Z,23.30
2023-02-05T18:14:50.993Z,24.47
2023-02-05T18:16:53.231Z,21.60
2023-02-05T18:18:55.417Z,21.97
2023-02-05T18:21:01.511Z,23.27
2023-02-05T18:23:03.928Z,25.33
2023-02-05T18:25:06.604Z,33.80
2023-02-05T18:27:09.080Z,29.57
2023-02-05T18:29:11.088Z,27.57
2023-02-05T18:31:14.668Z,24.60
2023-02-05T18:33:16.856Z,22.03
2023-02-05T18:35:18.883Z,25.80
2023-02-05T18:37:20.804Z,34.60
2023-02-05T18:39:23.438Z,28.40
2023-02-05T18:41:28.760Z,36.73
2023-02-05T18:43:30.794Z,29.13
2023-02-05T18:45:33.112Z,23.77
2023-02-05T18:47:35.328Z,27.43
2023-02-05T18:49:37.755Z,24.70
2023-02-05T18:51:39.893Z,28.70
2023-02-05T18:53:43.337Z,29.33
2023-02-05T18:55:45.482Z,20.53
2023-02-05T18:57:47.521Z,21.47
2023-02-05T18:59:49.789Z,20.70
2023-02-05T19:01:52.935Z,30.87
2023-02-05T19:03:55.890Z,21.50
2023-02-05T19:06:04.058Z,21.57
2023-02-05T19:08:06.629Z,25.93
2023-02-05T19:10:08.818Z,26.37
2023-02-05T19:12:13.424Z,25.33
2023-02-05T19:14:18.467Z,16.40
2023-02-05T19:16:20.652Z,18.53
2023-02-05T19:18:25.297Z,19.13
2023-02-05T19:20:27.401Z,20.07
2023-02-05T19:22:29.686Z,24.93
2023-02-05T19:24:31.914Z,30.43
2023-02-05T19:26:36.061Z,26.73
2023-02-05T19:28:38.080Z,22.57
2023-02-05T19:30:41.956Z,24.17
2023-02-05T19:32:44.624Z,35.10
2023-02-05T19:34:47.081Z,31.47
2023-02-05T19:36:49.802Z,24.13
2023-02-05T19:38:51.937Z,23.73
2023-02-05T19:40:54.176Z,23.30
2023-02-05T19:42:56.898Z,29.87
2023-02-05T19:44:59.193Z,31.10
2023-02-05T19:47:01.228Z,24.60
2023-02-05T19:49:11.722Z,20.70
2023-02-05T19:51:14.956Z,17.00
2023-02-05T19:53:18.634Z,18.03
2023-02-05T19:55:20.545Z,18.73
2023-02-05T19:57:23.013Z,21.87
2023-02-05T19:59:26.902Z,23.87
2023-02-05T20:01:31.801Z,24.63
2023-02-05T20:03:34.010Z,19.53
2023-02-05T20:05:37.190Z,27.00
2023-02-05T20:07:39.366Z,37.17
2023-02-05T20:09:41.600Z,30.73
2023-02-05T20:11:46.847Z,27.40
2023-02-05T20:13:49.377Z,36.27
2023-02-05T20:15:51.609Z,20.00
2023-02-05T20:17:53.896Z,17.53
2023-02-05T20:20:10.136Z,17.20
2023-02-05T20:22:14.568Z,17.03
2023-02-05T20:24:16.837Z,19.23
2023-02-05T20:26:22.132Z,18.10
2023-02-05T20:28:27.330Z,22.10
2023-02-05T20:30:48.185Z,19.27
2023-02-05T20:36:47.588Z,25.27
2023-02-05T20:38:49.492Z,22.40
2023-02-05T20:40:51.347Z,18.40
2023-02-05T20:42:53.559Z,21.53
2023-02-05T20:44:55.743Z,30.70
2023-02-05T20:46:57.885Z,38.33
2023-02-05T20:49:00.911Z,34.40
2023-02-05T20:51:11.507Z,23.10
2023-02-05T20:53:14.227Z,19.10
2023-02-05T20:55:16.751Z,16.77
2023-02-05T20:57:20.468Z,15.90
2023-02-05T20:59:23.033Z,18.60
2023-02-05T21:01:26.900Z,16.63
2023-02-05T21:03:29.233Z,20.87
2023-02-05T21:05:32.121Z,20.80
2023-02-05T21:07:36.138Z,17.27
2023-02-05T21:09:38.119Z,17.93
2023-02-05T21:11:40.178Z,19.57
2023-02-05T21:13:43.687Z,20.67
2023-02-05T21:15:57.168Z,26.87
2023-02-05T21:17:59.249Z,37.07
2023-02-05T21:20:03.375Z,25.83
2023-02-05T21:22:06.011Z,23.80
2023-02-05T21:24:12.890Z,31.50
2023-02-05T21:26:21.204Z,27.43
2023-02-05T21:28:23.922Z,19.03
2023-02-05T21:30:26.208Z,16.93
2023-02-05T21:32:28.530Z,14.97
2023-02-05T21:34:30.961Z,14.37
2023-02-05T21:36:34.188Z,14.50
2023-02-05T21:38:37.788Z,15.63
2023-02-05T21:40:39.895Z,15.53
2023-02-05T21:42:42.156Z,13.97
2023-02-05T21:44:49.358Z,15.90
2023-02-05T21:46:54.028Z,12.37
2023-02-05T21:48:57.744Z,14.33
2023-02-05T21:51:00.367Z,15.07
2023-02-05T21:53:02.459Z,14.87
2023-02-05T21:55:04.833Z,14.43
2023-02-05T21:57:08.517Z,15.20
2023-02-05T21:59:12.446Z,14.40
2023-02-05T22:01:29.362Z,14.93
2023-02-05T22:03:32.192Z,13.40
2023-02-05T22:05:34.845Z,15.53
2023-02-05T22:07:37.349Z,16.93
2023-02-05T22:09:39.559Z,16.30
2023-02-05T22:11:42.432Z,17.53
2023-02-05T22:13:47.951Z,21.13
2023-02-05T22:15:50.017Z,20.60
2023-02-05T22:17:51.922Z,17.13
2023-02-05T22:19:54.408Z,14.10
2023-02-05T22:21:56.402Z,14.00
2023-02-05T22:24:00.802Z,13.80
2023-02-05T22:26:03.217Z,18.43
2023-02-05T22:28:05.707Z,14.63
2023-02-05T22:30:08.557Z,13.83
2023-02-05T22:32:11.501Z,14.53
2023-02-05T22:34:13.910Z,13.87
2023-02-05T22:36:18.111Z,18.90
2023-02-05T22:38:20.351Z,18.73
2023-02-05T22:40:22.499Z,12.90
2023-02-05T22:42:25.016Z,16.30
2023-02-05T22:44:27.175Z,19.70
2023-02-05T22:46:34.125Z,17.30
2023-02-05T22:48:37.999Z,24.60
2023-02-05T22:50:41.679Z,25.57
2023-02-05T22:52:44.188Z,24.63
2023-02-05T22:54:46.129Z,22.00
2023-02-05T22:56:48.235Z,30.13
2023-02-05T22:58:51.729Z,18.57
2023-02-05T23:00:53.987Z,17.77
2023-02-05T23:03:00.032Z,15.50
2023-02-05T23:05:02.072Z,14.20
2023-02-05T23:07:04.413Z,14.93
2023-02-05T23:09:09.375Z,17.20
2023-02-05T23:11:13.748Z,27.50
2023-02-05T23:13:16.267Z,34.70
2023-02-05T23:15:18.381Z,37.80
2023-02-05T23:17:20.434Z,50.50
2023-02-05T23:19:22.769Z,40.87
2023-02-05T23:21:28.966Z,40.50
2023-02-05T23:23:31.011Z,32.27
2023-02-05T23:25:36.876Z,23.00
2023-02-05T23:27:41.181Z,17.10
2023-02-05T23:29:43.356Z,18.07
2023-02-05T23:31:45.595Z,20.97
2023-02-05T23:33:47.932Z,18.50
2023-02-05T23:35:49.959Z,18.50
2023-02-05T23:37:51.907Z,45.40
2023-02-05T23:39:53.823Z,39.97
2023-02-05T23:41:55.809Z,32.20
2023-02-05T23:43:57.784Z,22.70
2023-02-05T23:46:00.320Z,18.43
2023-02-05T23:48:03.002Z,24.40
2023-02-05T23:50:05.647Z,30.87
2023-02-05T23:52:07.651Z,38.93
2023-02-05T23:54:11.516Z,37.97
2023-02-05T23:56:13.581Z,39.53
2023-02-05T23:58:16.191Z,40.03
